Main page
METAR-TAF:

METAR-TAF

Airports :

Kerry Airport

Killarney, Ireland

latitude: 52-10-51N, longitude: 9-31-26W, elevation: 34 m

Current weather observation

The report was made 44 minutes ago, at 08:30 UTC
Calm wind
Temperature 4°C
Humidity 93%
Pressure 1036 hPa
Visibility 10 km or more
no clouds below 1500 m and no cumulonimbus

METAR: EIKY 260830Z 00000KT CAVOK 04/03 Q1036

Time: 09:14 (09:14 UTC)

Forecast

The report was made 1 hour and 14 minutes ago, at 08:00 UTC
Forecast valid from 26 at 09 UTC to 26 at 18 UTC
Wind 3 kt from variable directions
Visibility 10 km or more
Few clouds at a height of 2200 ft
Scattered clouds at a height of 4000 ft
Becoming
from 26 at 09 UTC to 26 at 11 UTC
Wind 7 kt from the West/Southwest

TAF: EIKY 260800Z 2609/2618 VRB03KT 9999 FEW022 SCT040 BECMG 2609/2611 24007KT

Weather observations and forecasts of more than 4000 airports (METAR and TAF reports).

The available stations are represented by yellow and red dots on the map.

Hover mouse over dot to see the name of the station.

Then click to see weather observations and forecasts.

To change the map : click on the green buttons with a black cross to zoom in, on the green button with a dash to zoom out, or on the green arrows for adjacent maps.


METAR-TAF: